Crystal, Nevada
Current Conditions -  °F | °C
As of 4:52 AM on Sunday 21 Dec 2014 (Local Time) from KDRA Reporting Station
Clear Clear  
Wind Chill: 36°   Ceiling: Unl
Heat Index: 36°   Visibility: 10mi
Dew Point: 34°   Wind: 3mph
Humidity: 93%   Direction: 130°SE
Pressure: 30.14"   Gusts: NA
Location:  36.2552°N, 116.039°W
Report Text: KDRA 211252Z AUTO 13003KT 10SM CLR 02/01 A3014 RMK AO2 SLP201 T00220011 $
Loading
Personal Weather Stations






























Interactive Weather Map New forecast layout! Learn more

10-Day Weather Forecast

Advertisements
Track Severe Weather on mobile